메인 페이지
METAR-TAF:

METAR-TAF

공항 :

호르헤 차베스 국제공항

리마, 페루

위도: 12-00S, 경도: 077-07W, 고도: 12m

현재 날씨관측

예보는 24분 전, 01:00시(UTC)에 발표되었습니다.
남남동14kt
온도 24°C
습도 78%
기압 1013 hPa
시정 10km 이상
1500m 미만 상공 구름 및 적란운 없음

METAR: SPJC 260100Z 15014KT CAVOK 24/20 Q1013 NOSIG RMK PP000

시각: 20:24 (01:24 UTC)

예보

예보는 2 시간 24분 전, 23:00시(UTC)에 발표되었습니다.
예보 대상 시간: 26일 00시부터 26일 24시까지 (UTC)
12kt
시정: 7000m
고도 1300ft 상공 구름 조금
고도 10000ft 상공 구름 많음
전환 중
26일 04시부터 26일 06시까지 (UTC)
5kt
전환 중
26일 08시부터 26일 10시까지 (UTC)
고도 1300ft 상공 구름 많음
26일 1430시부터 (UTC)
11kt
시정 10km 이상
1500m 미만 상공 구름 및 적란운 없음

TAF: SPJC 252300Z 2600/2624 17012KT 7000 FEW013 BKN100 TX29/2619Z TN23/2611Z BECMG 2604/2606 17005KT BECMG 2608/2610 BKN013 FM261430 17011KT CAVOK

4,000개 이상의 공항 관측 자료 및 예보 (METAR 및 TAF 보고).

지도상에서 검색 가능한 기상관측소가 노란 점과 빨간 점으로 표시되어 있습니다.

기상관측소 명을 보려면 표시 위로 마우스를 이동하세요.

날씨 관측과 예보를 보려면 클릭하세요.

지도 변경 : 확대하려면 엑스 표시가 있는 녹색 버튼, 축소하려면 빼기 표시가 있는 녹색 버튼, 다음 페이지의 지도를 보려면 녹색 화살표를 클릭하세요.


METAR-TAF: